Time;durP1;ratioP1;P1;durP2;ratioP2;P2;SDS_P1;SDS_P2;PMS_P1;PMS_P2;Temp;Humidity;BMP_temperature;BMP_pressure;BME280_temperature;BME280_humidity;BME280_pressure;Samples;Min_cycle;Max_cycle;Signal;HPM_P1;HPM_P2
2021/04/08 00:01:16;;;;;;;18.15;9.30;;;3.60;99.90;;;;;;5008984;28;20033;-63
2021/04/08 00:03:43;;;;;;;18.75;10.00;;;3.50;99.90;;;;;;5007719;28;20038;-63
2021/04/08 00:06:09;;;;;;;14.77;8.52;;;3.50;99.90;;;;;;4999553;28;20056;-64
2021/04/08 00:08:35;;;;;;;12.18;7.88;;;3.60;99.90;;;;;;4990521;28;20373;-65
2021/04/08 00:11:00;;;;;;;14.52;8.18;;;3.60;99.90;;;;;;5000907;28;20026;-63
2021/04/08 00:13:26;;;;;;;20.27;8.23;;;3.60;99.90;;;;;;4989974;28;20054;-63
2021/04/08 00:15:51;;;;;;;18.48;9.80;;;3.50;99.90;;;;;;5001088;28;20034;-63
2021/04/08 00:18:17;;;;;;;16.17;8.43;;;3.50;99.90;;;;;;4990030;28;20101;-65
2021/04/08 00:20:44;;;;;;;11.95;8.63;;;3.50;99.90;;;;;;5000985;28;20040;-63
2021/04/08 00:23:10;;;;;;;14.43;8.82;;;3.40;99.90;;;;;;4990013;28;20379;-63
2021/04/08 00:25:36;;;;;;;13.30;8.68;;;3.30;99.90;;;;;;5000879;28;20032;-63
2021/04/08 00:28:03;;;;;;;11.13;8.48;;;3.20;99.90;;;;;;4990140;28;20026;-63
2021/04/08 00:30:29;;;;;;;14.02;7.32;;;3.20;99.90;;;;;;5000780;28;20073;-64
2021/04/08 00:32:54;;;;;;;11.40;7.07;;;3.20;99.90;;;;;;4989848;28;20034;-63
2021/04/08 00:35:20;;;;;;;9.77;6.60;;;3.30;99.90;;;;;;4999431;28;20040;-63
2021/04/08 00:37:46;;;;;;;11.60;6.47;;;3.20;99.90;;;;;;4991279;28;20494;-63
2021/04/08 00:40:14;;;;;;;8.77;7.18;;;3.20;99.90;;;;;;4998616;28;20479;-63
2021/04/08 00:42:41;;;;;;;14.02;6.72;;;3.20;99.90;;;;;;4991842;28;20487;-63
2021/04/08 00:45:07;;;;;;;8.30;6.07;;;2.90;99.90;;;;;;4997725;28;20558;-63
2021/04/08 00:47:33;;;;;;;8.18;6.15;;;3.00;99.90;;;;;;4992815;28;20023;-63
2021/04/08 00:49:59;;;;;;;10.95;6.78;;;3.00;99.90;;;;;;4996446;28;20041;-63
2021/04/08 00:52:25;;;;;;;11.00;6.72;;;2.90;99.90;;;;;;4993851;28;20572;-63
2021/04/08 00:54:51;;;;;;;10.23;6.95;;;3.00;99.90;;;;;;4995272;28;20089;-63
2021/04/08 00:57:17;;;;;;;12.82;6.97;;;3.00;99.90;;;;;;4994912;28;20491;-63
2021/04/08 00:59:43;;;;;;;11.77;6.45;;;2.90;99.90;;;;;;4994228;28;20033;-63
2021/04/08 01:02:09;;;;;;;9.13;6.70;;;2.90;99.90;;;;;;4996181;28;20030;-63
2021/04/08 01:04:36;;;;;;;14.75;7.00;;;2.90;99.90;;;;;;4997011;28;20387;-63
2021/04/08 01:07:03;;;;;;;12.20;6.80;;;2.90;99.90;;;;;;5000119;28;20453;-63
2021/04/08 01:09:28;;;;;;;11.32;7.30;;;2.70;99.90;;;;;;5007666;28;20034;-63
2021/04/08 01:11:54;;;;;;;14.07;7.60;;;2.70;99.90;;;;;;5001590;28;20027;-63
2021/04/08 01:14:21;;;;;;;12.32;7.28;;;2.80;99.90;;;;;;4995278;28;20407;-63
2021/04/08 01:17:14;;;;;;;9.10;6.38;;;2.70;99.90;;;;;;5001762;28;20034;-64
2021/04/08 01:19:54;;;;;;;9.40;6.70;;;2.70;99.90;;;;;;4996846;28;20084;-63
2021/04/08 01:22:37;;;;;;;8.35;6.43;;;2.70;99.90;;;;;;4997438;28;20022;-63
2021/04/08 01:25:21;;;;;;;11.95;6.65;;;2.60;99.90;;;;;;5000057;28;20029;-63
2021/04/08 01:27:55;;;;;;;7.63;5.50;;;2.70;99.90;;;;;;4994136;28;20054;-63
2021/04/08 01:30:47;;;;;;;11.02;5.97;;;2.50;99.90;;;;;;5002203;28;20105;-63
2021/04/08 01:33:41;;;;;;;6.72;5.35;;;2.80;99.90;;;;;;4992863;28;20022;-64
2021/04/08 01:36:15;;;;;;;7.80;5.07;;;2.60;99.90;;;;;;5001591;28;20049;-64
2021/04/08 01:39:04;;;;;;;9.25;4.95;;;2.50;99.90;;;;;;5010109;28;20026;-63
2021/04/08 01:41:36;;;;;;;6.32;5.03;;;2.30;99.90;;;;;;5001246;28;20022;-63
2021/04/08 01:44:02;;;;;;;10.40;6.85;;;2.50;99.90;;;;;;4994717;28;20513;-63
2021/04/08 01:46:28;;;;;;;12.20;6.97;;;2.60;99.90;;;;;;5000945;28;20030;-64
2021/04/08 01:48:58;;;;;;;9.52;6.05;;;2.70;99.90;;;;;;4994772;28;20026;-63
2021/04/08 01:51:25;;;;;;;8.70;5.30;;;2.60;99.90;;;;;;5000852;28;20049;-63
2021/04/08 01:53:55;;;;;;;10.43;5.38;;;2.10;99.90;;;;;;5009127;28;20585;-63
2021/04/08 01:56:23;;;;;;;8.05;5.93;;;2.00;99.90;;;;;;5000812;28;20026;-63
2021/04/08 01:58:51;;;;;;;7.55;5.63;;;1.90;99.90;;;;;;4993760;28;20034;-63
2021/04/08 02:01:18;;;;;;;8.15;6.25;;;1.70;99.90;;;;;;5001224;28;20026;-63
2021/04/08 02:03:45;;;;;;;10.57;5.90;;;1.80;99.90;;;;;;4993005;28;20038;-63
2021/04/08 02:06:11;;;;;;;11.52;5.93;;;1.70;99.90;;;;;;5001473;28;20065;-63
2021/04/08 02:08:39;;;;;;;10.30;6.10;;;1.90;99.90;;;;;;4992350;28;20037;-63
2021/04/08 02:11:09;;;;;;;10.18;6.43;;;1.90;99.90;;;;;;5000756;28;20034;-63
2021/04/08 02:13:35;;;;;;;11.77;8.32;;;2.00;99.90;;;;;;5009578;28;20105;-63
2021/04/08 02:16:01;;;;;;;15.63;7.65;;;1.90;99.90;;;;;;5002136;28;20038;-63
2021/04/08 02:18:29;;;;;;;11.48;6.53;;;1.60;99.90;;;;;;4991591;28;20080;-63
2021/04/08 02:20:58;;;;;;;14.80;7.40;;;1.80;99.90;;;;;;5000037;28;20014;-63
2021/04/08 02:23:26;;;;;;;10.88;6.47;;;1.90;99.90;;;;;;5011460;28;20030;-63
2021/04/08 02:25:54;;;;;;;14.75;7.35;;;2.10;99.90;;;;;;4999770;28;20034;-63
2021/04/08 02:28:21;;;;;;;15.65;7.20;;;2.00;99.90;;;;;;5011336;28;20109;-64
2021/04/08 02:30:50;;;;;;;13.07;6.30;;;2.20;99.90;;;;;;5002440;28;20029;-63
2021/04/08 02:33:20;;;;;;;11.93;6.05;;;2.30;99.90;;;;;;4991666;28;20050;-63
2021/04/08 02:35:46;;;;;;;13.35;6.22;;;2.20;99.90;;;;;;5002258;28;20042;-63
2021/04/08 02:38:12;;;;;;;11.73;6.22;;;2.10;99.90;;;;;;4991655;28;20076;-63
2021/04/08 02:40:38;;;;;;;12.40;7.05;;;2.10;99.90;;;;;;5002474;28;20026;-63
2021/04/08 02:43:04;;;;;;;21.55;10.07;;;1.90;99.90;;;;;;4991356;28;20050;-63
2021/04/08 02:45:30;;;;;;;23.42;10.63;;;1.50;99.90;;;;;;5001934;28;20108;-63
2021/04/08 02:47:55;;;;;;;17.52;9.18;;;1.40;99.90;;;;;;4991846;28;20030;-63
2021/04/08 02:50:21;;;;;;;16.50;8.73;;;1.50;99.90;;;;;;5000751;28;20108;-63
2021/04/08 02:52:57;;;;;;;18.73;8.10;;;1.50;99.90;;;;;;4992604;28;20030;-63
2021/04/08 02:55:49;;;;;;;9.48;6.45;;;1.60;99.90;;;;;;5000670;28;20041;-63
2021/04/08 02:58:17;;;;;;;10.05;5.70;;;1.80;99.90;;;;;;4991210;28;20054;-63
2021/04/08 03:00:51;;;;;;;7.60;5.38;;;1.90;99.90;;;;;;5001987;28;20109;-63
2021/04/08 03:03:22;;;;;;;7.53;4.68;;;1.70;99.90;;;;;;4991122;28;20084;-63
2021/04/08 03:05:48;;;;;;;8.18;5.57;;;1.70;99.90;;;;;;5001505;28;20061;-63
2021/04/08 03:08:17;;;;;;;11.80;5.93;;;1.70;99.90;;;;;;4991247;28;20050;-63
2021/04/08 03:10:44;;;;;;;11.60;6.60;;;1.80;99.90;;;;;;5001819;28;20113;-62
2021/04/08 03:13:12;;;;;;;9.27;5.65;;;1.70;99.90;;;;;;4990958;28;20137;-63
2021/04/08 03:15:39;;;;;;;15.30;6.32;;;1.50;99.90;;;;;;5001525;28;20811;-63
2021/04/08 03:18:09;;;;;;;10.07;6.20;;;1.30;99.90;;;;;;4990777;28;20507;-63
2021/04/08 03:20:37;;;;;;;9.52;6.57;;;1.20;99.90;;;;;;5001563;28;20421;-63
2021/04/08 03:23:05;;;;;;;8.57;6.50;;;1.40;99.90;;;;;;4990790;28;20598;-63
2021/04/08 03:25:32;;;;;;;11.77;5.72;;;1.60;99.90;;;;;;5001442;28;20483;-63
2021/04/08 03:27:58;;;;;;;11.32;6.50;;;1.60;99.90;;;;;;4990697;28;20509;-63
2021/04/08 03:30:25;;;;;;;11.80;6.32;;;1.30;99.90;;;;;;4997200;28;20035;-63
2021/04/08 03:32:55;;;;;;;7.97;6.00;;;1.40;99.90;;;;;;5009496;28;20010;-63
2021/04/08 03:35:24;;;;;;;6.50;5.22;;;1.40;99.90;;;;;;5003783;28;20042;-63
2021/04/08 03:37:50;;;;;;;10.13;5.18;;;1.60;99.90;;;;;;4991743;28;20033;-63
2021/04/08 03:40:16;;;;;;;7.00;4.75;;;1.40;99.90;;;;;;4999063;28;20041;-63
2021/04/08 03:42:42;;;;;;;6.55;5.07;;;1.60;99.90;;;;;;4992633;28;20030;-63
2021/04/08 03:45:10;;;;;;;9.20;4.72;;;1.50;99.90;;;;;;4998014;28;20026;-63
2021/04/08 03:47:40;;;;;;;6.32;5.10;;;1.50;99.90;;;;;;4993450;28;20022;-63
2021/04/08 03:50:07;;;;;;;14.13;5.68;;;1.50;99.90;;;;;;4997642;28;20026;-63
2021/04/08 03:52:34;;;;;;;8.93;5.88;;;1.50;99.90;;;;;;4993719;28;20100;-63
2021/04/08 03:55:02;;;;;;;7.18;5.68;;;1.40;99.90;;;;;;4996569;28;20444;-63
2021/04/08 03:57:28;;;;;;;9.25;5.45;;;1.30;99.90;;;;;;4994392;28;20121;-63
2021/04/08 03:59:55;;;;;;;7.25;5.43;;;1.30;99.90;;;;;;4996078;28;20029;-63
2021/04/08 04:02:24;;;;;;;6.10;5.47;;;1.40;99.90;;;;;;4995368;28;20022;-62
2021/04/08 04:04:50;;;;;;;8.75;4.80;;;1.20;99.90;;;;;;4995327;28;20049;-63
2021/04/08 04:07:17;;;;;;;8.43;5.25;;;1.10;99.90;;;;;;4995643;28;20523;-63
2021/04/08 04:09:43;;;;;;;9.30;4.70;;;1.00;99.90;;;;;;4993990;28;20542;-63
2021/04/08 04:12:14;;;;;;;9.20;5.05;;;1.20;99.90;;;;;;4996853;28;20030;-63
2021/04/08 04:14:43;;;;;;;5.05;4.43;;;1.30;99.90;;;;;;4993838;28;20518;-63
2021/04/08 04:17:24;;;;;;;7.32;5.18;;;1.20;99.90;;;;;;4996754;28;20030;-63
2021/04/08 04:19:50;;;;;;;6.97;5.03;;;1.40;99.90;;;;;;4994871;28;20070;-63
2021/04/08 04:22:16;;;;;;;9.55;4.68;;;1.30;99.90;;;;;;4995439;28;20445;-63
2021/04/08 04:24:41;;;;;;;8.50;4.13;;;1.40;99.90;;;;;;4993978;28;20106;-63
2021/04/08 04:27:07;;;;;;;7.63;4.40;;;1.30;99.90;;;;;;4997010;28;20430;-62
2021/04/08 04:29:33;;;;;;;7.65;4.50;;;1.20;99.90;;;;;;4992829;28;20037;-62
2021/04/08 04:31:59;;;;;;;8.88;4.32;;;1.10;99.90;;;;;;4998100;28;20517;-63
2021/04/08 04:34:24;;;;;;;7.15;4.97;;;1.10;99.90;;;;;;4993540;28;20034;-63
2021/04/08 04:36:50;;;;;;;9.27;4.40;;;1.20;99.90;;;;;;5000592;28;20040;-62
2021/04/08 04:39:15;;;;;;;6.43;4.43;;;1.30;99.90;;;;;;5008946;28;20118;-62
2021/04/08 04:41:41;;;;;;;7.55;4.82;;;1.30;99.90;;;;;;5011903;28;20105;-62
2021/04/08 04:44:07;;;;;;;7.68;4.55;;;1.30;99.90;;;;;;5010744;28;20033;-62
2021/04/08 04:46:32;;;;;;;10.55;5.05;;;1.00;99.90;;;;;;5012902;28;20030;-62
2021/04/08 04:48:59;;;;;;;8.88;4.78;;;1.10;99.90;;;;;;5011283;28;20022;-62
2021/04/08 04:51:25;;;;;;;10.50;5.20;;;1.10;99.90;;;;;;5002091;28;20046;-62
2021/04/08 04:53:51;;;;;;;5.95;4.40;;;1.10;99.90;;;;;;5001662;28;20057;-62
2021/04/08 04:56:16;;;;;;;9.15;5.13;;;2.40;99.90;;;;;;5003022;28;20038;-62
2021/04/08 04:58:42;;;;;;;6.18;4.65;;;1.60;99.90;;;;;;5008289;28;20045;-62
2021/04/08 05:01:08;;;;;;;5.55;4.32;;;1.40;99.90;;;;;;5010309;28;20030;-62
2021/04/08 05:03:34;;;;;;;6.50;4.28;;;1.20;99.90;;;;;;5011506;28;20506;-63
2021/04/08 05:05:59;;;;;;;5.13;4.50;;;1.20;99.90;;;;;;5010599;28;20041;-62
2021/04/08 05:08:25;;;;;;;6.97;4.35;;;1.10;99.90;;;;;;5012389;28;20033;-62
2021/04/08 05:10:50;;;;;;;5.30;4.22;;;1.10;99.90;;;;;;5009629;28;20037;-62
2021/04/08 05:13:16;;;;;;;8.00;4.38;;;0.90;99.90;;;;;;5012207;28;20030;-62
2021/04/08 05:15:42;;;;;;;6.07;4.65;;;1.00;99.90;;;;;;5010981;28;20026;-63
2021/04/08 05:18:08;;;;;;;8.27;4.93;;;0.80;99.90;;;;;;5014336;28;20107;-62
2021/04/08 05:20:33;;;;;;;7.55;5.38;;;0.80;99.90;;;;;;5012024;28;20164;-63
2021/04/08 05:22:59;;;;;;;11.60;5.13;;;0.80;99.90;;;;;;5011799;28;20026;-63
2021/04/08 05:25:25;;;;;;;10.48;4.78;;;0.80;99.90;;;;;;5009732;28;20037;-63
2021/04/08 05:27:50;;;;;;;6.50;5.00;;;0.90;99.90;;;;;;5011895;28;20116;-62
2021/04/08 05:30:16;;;;;;;9.13;5.32;;;0.90;99.90;;;;;;5010261;28;20038;-63
2021/04/08 05:32:42;;;;;;;9.07;4.88;;;1.00;99.90;;;;;;5011809;28;20061;-63
2021/04/08 05:35:08;;;;;;;7.03;4.55;;;1.10;99.90;;;;;;5009612;28;20514;-63
2021/04/08 05:37:34;;;;;;;10.02;4.85;;;1.10;99.90;;;;;;5011295;28;20017;-63
2021/04/08 05:40:00;;;;;;;8.48;5.45;;;1.20;99.90;;;;;;5009540;28;20029;-63
2021/04/08 05:42:25;;;;;;;8.63;4.47;;;1.20;99.90;;;;;;5011635;28;20100;-63
2021/04/08 05:44:51;;;;;;;21.42;4.85;;;1.10;99.90;;;;;;5009029;28;20033;-63
2021/04/08 05:47:17;;;;;;;13.90;4.63;;;1.20;99.90;;;;;;5010551;28;20044;-63
2021/04/08 05:49:42;;;;;;;7.72;4.05;;;1.20;99.90;;;;;;5009593;28;20036;-63
2021/04/08 05:52:08;;;;;;;13.52;5.40;;;1.10;99.90;;;;;;5011338;28;20037;-63
2021/04/08 05:54:34;;;;;;;15.60;5.78;;;1.20;99.90;;;;;;5005280;28;20109;-63
2021/04/08 05:56:59;;;;;;;20.27;5.10;;;1.00;99.90;;;;;;5000671;28;20069;-63
2021/04/08 05:59:25;;;;;;;35.25;7.22;;;1.10;99.90;;;;;;4992284;28;20028;-63
2021/04/08 06:01:51;;;;;;;13.55;5.88;;;1.20;99.90;;;;;;4992316;28;20077;-62
2021/04/08 06:04:17;;;;;;;31.77;6.60;;;1.10;99.90;;;;;;4992251;28;20728;-63
2021/04/08 06:06:43;;;;;;;34.38;7.00;;;1.20;99.90;;;;;;4991844;28;20089;-63
2021/04/08 06:09:08;;;;;;;42.05;7.28;;;1.20;99.90;;;;;;4991850;28;20042;-62
2021/04/08 06:11:34;;;;;;;71.43;8.48;;;1.20;99.90;;;;;;4992133;28;20027;-63
2021/04/08 06:14:00;;;;;;;64.68;8.52;;;1.20;99.90;;;;;;4991914;28;20030;-62
2021/04/08 06:16:25;;;;;;;76.90;8.10;;;1.30;99.90;;;;;;4992126;28;20065;-63
2021/04/08 06:18:51;;;;;;;89.63;8.30;;;1.30;99.90;;;;;;4991794;28;20109;-63
2021/04/08 06:21:16;;;;;;;31.10;6.32;;;1.50;99.90;;;;;;5006859;28;20041;-62
2021/04/08 06:23:43;;;;;;;61.35;7.05;;;1.60;99.90;;;;;;4991922;28;20022;-62
2021/04/08 06:26:09;;;;;;;55.88;8.57;;;1.60;99.90;;;;;;4991955;28;20023;-62
2021/04/08 06:28:34;;;;;;;67.25;8.07;;;1.80;99.90;;;;;;4997681;28;20029;-62
2021/04/08 06:31:00;;;;;;;75.47;9.00;;;1.90;99.90;;;;;;5010753;28;20017;-62
2021/04/08 06:33:25;;;;;;;70.43;8.40;;;1.90;99.90;;;;;;5010760;28;20445;-62
2021/04/08 06:35:51;;;;;;;50.80;8.68;;;1.80;99.90;;;;;;5010386;28;20042;-62
2021/04/08 06:38:17;;;;;;;23.35;5.40;;;2.00;99.90;;;;;;5010913;28;20076;-62
2021/04/08 06:40:43;;;;;;;28.90;6.80;;;2.40;99.90;;;;;;5011068;28;20021;-62
2021/04/08 06:43:11;;;;;;;22.15;5.90;;;2.90;99.90;;;;;;5010523;28;20014;-62
2021/04/08 06:45:39;;;;;;;24.05;5.75;;;3.00;99.90;;;;;;5010786;28;20038;-62
2021/04/08 06:48:18;;;;;;;27.23;5.70;;;3.00;99.90;;;;;;5010979;28;20026;-62
2021/04/08 06:50:46;;;;;;;15.05;5.97;;;3.30;99.90;;;;;;5010833;28;20030;-62
2021/04/08 06:53:13;;;;;;;20.00;6.18;;;3.20;99.90;;;;;;5011136;28;20026;-62
2021/04/08 06:55:41;;;;;;;13.32;6.35;;;3.30;99.90;;;;;;5010951;28;20100;-62
2021/04/08 06:58:09;;;;;;;11.85;5.80;;;3.70;99.90;;;;;;5004949;28;20029;-62
2021/04/08 07:00:35;;;;;;;13.32;4.70;;;3.80;99.90;;;;;;5016646;28;20026;-61
2021/04/08 07:03:04;;;;;;;15.63;5.45;;;4.10;99.90;;;;;;5023929;28;20029;-63
2021/04/08 07:05:29;;;;;;;10.75;3.63;;;4.90;99.90;;;;;;5024483;28;20022;-62
2021/04/08 07:07:55;;;;;;;9.75;3.40;;;4.70;99.90;;;;;;5009923;28;20064;-62
2021/04/08 07:10:21;;;;;;;11.27;4.45;;;4.60;99.90;;;;;;5009767;28;20650;-62
2021/04/08 07:12:47;;;;;;;9.40;4.07;;;4.80;99.90;;;;;;5010014;28;20037;-62
2021/04/08 07:15:13;;;;;;;6.57;3.40;;;4.90;99.90;;;;;;5009720;28;20380;-62
2021/04/08 07:17:40;;;;;;;12.88;2.88;;;5.00;99.90;;;;;;5009325;28;20101;-62
2021/04/08 07:20:07;;;;;;;5.25;3.05;;;5.50;99.90;;;;;;5009779;28;20112;-61
2021/04/08 07:22:32;;;;;;;5.47;2.85;;;5.60;99.90;;;;;;5009385;28;20415;-62
2021/04/08 07:24:58;;;;;;;10.13;2.63;;;5.80;99.10;;;;;;5009677;28;20052;-62
2021/04/08 07:27:25;;;;;;;16.00;3.30;;;6.10;98.10;;;;;;5010009;28;20026;-62
2021/04/08 07:30:01;;;;;;;10.23;3.15;;;6.40;97.60;;;;;;5009278;28;20029;-63
2021/04/08 07:32:31;;;;;;;;;;;6.60;98.00;;;;;;5009738;28;20121;-62
2021/04/08 07:35:11;;;;;;;14.63;2.88;;;6.70;97.30;;;;;;5008928;28;19924;-62
2021/04/08 07:37:38;;;;;;;18.27;4.20;;;6.90;97.30;;;;;;5007886;28;20124;-62
2021/04/08 07:40:19;;;;;;;8.57;2.78;;;7.10;96.70;;;;;;4990567;28;20098;-63
2021/04/08 07:42:45;;;;;;;13.98;2.97;;;7.60;96.60;;;;;;5005173;28;20030;-62
2021/04/08 07:45:22;;;;;;;10.73;3.33;;;7.50;96.70;;;;;;4990424;28;20018;-62
2021/04/08 07:48:00;;;;;;;6.13;2.92;;;7.50;96.20;;;;;;4990273;28;20679;-62
2021/04/08 07:50:26;;;;;;;20.20;4.15;;;7.70;96.60;;;;;;5002395;28;20041;-62
2021/04/08 07:52:52;;;;;;;31.58;4.57;;;7.80;95.80;;;;;;5009723;28;20034;-63
2021/04/08 07:55:29;;;;;;;16.85;3.83;;;7.80;96.30;;;;;;5009946;28;20034;-63
2021/04/08 07:58:02;;;;;;;17.40;4.35;;;7.90;95.80;;;;;;5010003;28;20056;-63
2021/04/08 08:00:38;;;;;;;17.90;4.25;;;8.10;95.80;;;;;;5009984;28;20025;-63
2021/04/08 08:03:07;;;;;;;13.15;4.53;;;8.30;96.30;;;;;;5009988;28;20022;-63
2021/04/08 08:05:40;;;;;;;14.77;4.07;;;8.40;96.20;;;;;;5009838;28;20026;-63
2021/04/08 08:08:18;;;;;;;16.63;3.55;;;8.40;95.30;;;;;;5009919;28;20041;-62
2021/04/08 08:11:05;;;;;;;15.57;4.35;;;8.50;95.70;;;;;;5010004;28;20072;-62
2021/04/08 08:13:37;;;;;;;11.75;3.67;;;8.60;95.80;;;;;;5012706;28;20545;-62
2021/04/08 08:16:05;;;;;;;13.00;4.07;;;8.80;96.20;;;;;;5013769;28;20041;-63
2021/04/08 08:18:32;;;;;;;18.75;4.20;;;8.70;95.80;;;;;;5013749;28;20022;-62
2021/04/08 08:21:03;;;;;;;19.05;4.05;;;9.20;96.20;;;;;;5013573;28;20556;-64
2021/04/08 08:23:37;;;;;;;9.32;4.03;;;9.30;95.40;;;;;;5013873;28;20411;-62
2021/04/08 08:26:26;;;;;;;9.13;4.28;;;9.30;95.50;;;;;;5013771;28;20030;-63
2021/04/08 08:28:53;;;;;;;11.90;4.15;;;9.40;95.50;;;;;;5013787;28;20056;-63
2021/04/08 08:31:37;;;;;;;5.47;3.83;;;9.60;95.80;;;;;;5013560;28;20057;-63
2021/04/08 08:34:10;;;;;;;10.07;5.15;;;9.60;95.50;;;;;;5013630;28;20022;-62
2021/04/08 08:36:39;;;;;;;17.10;4.78;;;9.70;95.20;;;;;;5013247;28;20041;-62
2021/04/08 08:39:09;;;;;;;14.50;4.63;;;10.00;95.00;;;;;;5013589;28;20018;-63
2021/04/08 08:41:37;;;;;;;10.88;4.63;;;10.00;95.10;;;;;;5013680;28;20018;-63
2021/04/08 08:44:05;;;;;;;13.10;4.00;;;10.30;95.60;;;;;;5013417;28;20096;-63
2021/04/08 08:46:33;;;;;;;18.13;4.47;;;10.50;95.40;;;;;;5013421;28;20025;-62
2021/04/08 08:49:01;;;;;;;13.57;4.10;;;10.50;94.70;;;;;;5013100;28;20466;-63
2021/04/08 08:51:28;;;;;;;9.43;4.82;;;10.70;95.00;;;;;;5013198;28;20018;-63
2021/04/08 08:53:54;;;;;;;15.52;4.47;;;10.70;94.60;;;;;;5013434;28;20022;-63
2021/04/08 08:56:24;;;;;;;16.77;4.75;;;10.70;94.70;;;;;;5013107;28;20065;-63
2021/04/08 08:58:54;;;;;;;17.75;4.35;;;10.70;94.20;;;;;;5013407;28;20501;-63
2021/04/08 09:01:21;;;;;;;19.10;4.63;;;10.80;93.50;;;;;;5013026;28;20049;-63
2021/04/08 09:03:48;;;;;;;15.90;4.32;;;10.90;93.60;;;;;;5012994;28;20022;-63
2021/04/08 09:06:15;;;;;;;13.65;4.38;;;11.20;93.80;;;;;;5012294;28;20406;-64
2021/04/08 09:08:45;;;;;;;11.07;4.70;;;11.20;93.50;;;;;;5012039;28;20021;-63
2021/04/08 09:11:22;;;;;;;13.82;4.40;;;11.30;93.60;;;;;;5011900;28;20022;-64
2021/04/08 09:13:52;;;;;;;14.05;4.47;;;11.50;93.40;;;;;;5011573;28;20030;-64
2021/04/08 09:16:18;;;;;;;10.57;3.80;;;11.30;92.80;;;;;;5011436;28;20646;-63
2021/04/08 09:19:02;;;;;;;11.48;3.70;;;11.40;92.80;;;;;;5011618;28;20038;-64
2021/04/08 09:21:51;;;;;;;8.60;3.40;;;11.30;92.80;;;;;;5011529;28;20056;-65
2021/04/08 09:24:39;;;;;;;6.47;3.45;;;11.90;93.50;;;;;;5010941;28;20032;-63
2021/04/08 09:27:08;;;;;;;9.98;3.53;;;12.10;93.40;;;;;;5011555;28;20041;-64
2021/04/08 09:29:34;;;;;;;11.00;3.05;;;12.50;93.00;;;;;;5011623;28;20056;-64
2021/04/08 09:32:19;;;;;;;8.85;2.58;;;12.30;91.80;;;;;;5011252;28;20049;-64
2021/04/08 09:35:06;;;;;;;13.77;2.78;;;12.20;92.30;;;;;;5011313;28;20034;-64
2021/04/08 09:37:44;;;;;;;12.05;2.75;;;12.60;92.40;;;;;;5011113;28;20060;-64
2021/04/08 09:40:51;;;;;;;20.83;2.90;;;12.60;91.50;;;;;;5011399;28;20065;-64
2021/04/08 09:43:19;;;;;;;18.90;2.65;;;12.90;91.80;;;;;;5009780;28;20455;-64
2021/04/08 09:45:50;;;;;;;12.82;2.47;;;12.70;91.80;;;;;;5011202;28;20026;-64
2021/04/08 09:48:21;;;;;;;8.32;2.17;;;12.80;91.50;;;;;;5010964;28;20036;-64
2021/04/08 09:51:01;;;;;;;9.23;2.60;;;12.70;91.80;;;;;;5010482;28;20068;-64
2021/04/08 09:53:49;;;;;;;7.18;2.15;;;12.90;91.10;;;;;;5011137;28;20025;-63
2021/04/08 09:56:15;;;;;;;4.80;2.25;;;13.00;91.10;;;;;;5010703;28;20038;-64
2021/04/08 09:58:41;;;;;;;5.78;2.55;;;12.80;91.20;;;;;;5010867;28;20022;-63
2021/04/08 10:01:10;;;;;;;7.53;2.50;;;12.80;91.20;;;;;;5010146;28;20033;-64
2021/04/08 10:03:40;;;;;;;5.38;2.25;;;13.20;91.00;;;;;;5010855;28;20458;-64
2021/04/08 10:06:15;;;;;;;10.73;2.42;;;13.40;91.50;;;;;;4986848;28;683208;-64
2021/04/08 10:08:42;;;;;;;10.77;2.50;;;13.40;91.40;;;;;;5011880;28;20034;-64
2021/04/08 10:11:07;;;;;;;8.00;2.30;;;13.90;90.60;;;;;;5011808;28;20158;-64
2021/04/08 10:13:35;;;;;;;8.43;2.83;;;14.20;90.60;;;;;;5011717;28;20477;-64
2021/04/08 10:16:12;;;;;;;3.10;2.10;;;14.30;91.10;;;;;;5011634;28;20030;-64
2021/04/08 10:18:38;;;;;;;12.25;3.47;;;14.30;90.60;;;;;;5011612;28;20018;-64
2021/04/08 10:21:06;;;;;;;5.65;2.10;;;14.30;91.10;;;;;;5011380;28;20347;-64
2021/04/08 10:23:37;;;;;;;8.25;2.50;;;14.30;90.80;;;;;;5011503;28;20029;-64
2021/04/08 10:26:11;;;;;;;9.52;2.60;;;14.60;90.70;;;;;;5011485;28;20064;-64
2021/04/08 10:28:37;;;;;;;10.85;2.80;;;14.20;89.70;;;;;;5011507;28;20025;-64
2021/04/08 10:31:18;;;;;;;5.45;2.28;;;14.80;90.60;;;;;;5011226;28;20105;-64
2021/04/08 10:33:49;;;;;;;13.32;2.83;;;14.60;88.30;;;;;;5011068;28;20022;-64
2021/04/08 10:36:34;;;;;;;9.57;2.50;;;14.50;89.50;;;;;;5010196;28;20046;-64
2021/04/08 10:39:11;;;;;;;5.70;2.30;;;14.80;90.00;;;;;;5011405;28;20030;-64
2021/04/08 10:41:37;;;;;;;;;;;15.00;89.90;;;;;;5011483;28;20100;-65
2021/04/08 10:44:25;;;;;;;5.43;2.67;;;15.20;88.10;;;;;;5010949;28;19906;-63
2021/04/08 10:46:52;;;;;;;9.93;2.60;;;15.20;88.40;;;;;;5018959;28;20496;-63
2021/04/08 10:49:27;;;;;;;10.15;2.50;;;14.80;89.30;;;;;;5022960;28;20080;-63
2021/04/08 10:51:54;;;;;;;10.73;2.70;;;15.10;89.10;;;;;;5029381;28;20029;-63
2021/04/08 10:54:26;;;;;;;6.28;2.13;;;15.80;88.50;;;;;;5030904;28;20018;-63
2021/04/08 10:56:51;;;;;;;7.88;2.45;;;15.80;87.30;;;;;;5014182;28;20119;-63
2021/04/08 10:59:19;;;;;;;7.00;2.67;;;15.80;87.80;;;;;;5012794;28;20433;-63
2021/04/08 11:01:46;;;;;;;5.70;2.50;;;15.80;87.20;;;;;;5020867;28;20471;-63
2021/04/08 11:04:12;;;;;;;12.73;2.58;;;15.70;87.90;;;;;;5018680;28;20014;-63
2021/04/08 11:06:38;;;;;;;10.13;2.92;;;15.80;89.10;;;;;;5023736;28;20669;-62
2021/04/08 11:09:05;;;;;;;8.85;2.22;;;15.70;86.90;;;;;;5010563;28;20382;-63
2021/04/08 11:11:31;;;;;;;6.93;2.53;;;16.30;87.30;;;;;;5010475;28;20096;-63
2021/04/08 11:13:57;;;;;;;9.13;3.33;;;16.70;86.40;;;;;;5010470;28;20101;-63
2021/04/08 11:16:25;;;;;;;9.10;3.03;;;16.10;86.20;;;;;;5009962;28;20406;-63
2021/04/08 11:18:51;;;;;;;8.23;3.22;;;16.10;86.00;;;;;;5011870;28;20282;-63
2021/04/08 11:21:17;;;;;;;6.50;2.65;;;16.30;86.50;;;;;;5009595;28;20597;-63
2021/04/08 11:23:43;;;;;;;8.00;2.85;;;16.40;86.50;;;;;;5010293;28;20045;-63
2021/04/08 11:26:09;;;;;;;7.03;2.92;;;16.80;88.40;;;;;;5010382;28;20018;-63
2021/04/08 11:28:42;;;;;;;7.68;3.10;;;16.60;84.10;;;;;;5009436;28;20022;-63
2021/04/08 11:31:18;;;;;;;5.55;3.20;;;16.00;84.50;;;;;;5007328;28;20438;-63
2021/04/08 11:33:44;;;;;;;13.93;3.65;;;16.50;85.30;;;;;;5009289;28;20036;-63
2021/04/08 11:36:21;;;;;;;7.47;3.22;;;17.30;85.10;;;;;;5008181;28;20030;-63
2021/04/08 11:38:47;;;;;;;7.15;3.20;;;17.50;85.00;;;;;;5009412;28;20578;-63
2021/04/08 11:41:13;;;;;;;12.02;3.80;;;17.20;84.40;;;;;;5009236;28;20105;-63
2021/04/08 11:43:47;;;;;;;11.43;3.20;;;17.20;82.90;;;;;;5009226;28;20026;-64
2021/04/08 11:46:43;;;;;;;23.00;3.88;;;17.10;84.10;;;;;;5009214;28;20067;-64
2021/04/08 11:49:20;;;;;;;11.10;2.80;;;17.30;82.20;;;;;;5005584;28;20057;-64
2021/04/08 11:51:48;;;;;;;7.35;3.20;;;17.20;81.50;;;;;;5009360;28;20056;-64
2021/04/08 11:54:16;;;;;;;10.63;2.65;;;17.30;83.30;;;;;;5006468;28;20080;-63
2021/04/08 11:56:43;;;;;;;10.23;3.30;;;17.30;82.50;;;;;;5009444;28;20542;-64
2021/04/08 11:59:08;;;;;;;7.35;3.00;;;17.30;83.70;;;;;;5010038;28;20018;-64
2021/04/08 12:01:36;;;;;;;6.55;3.33;;;17.80;83.10;;;;;;5025065;28;20121;-64
2021/04/08 12:04:15;;;;;;;7.30;2.67;;;17.80;81.90;;;;;;5009754;28;20042;-63
2021/04/08 12:07:06;;;;;;;9.35;2.90;;;18.30;84.50;;;;;;5006757;28;20069;-64
2021/04/08 12:09:49;;;;;;;6.22;3.10;;;18.10;82.30;;;;;;5008670;28;20022;-63
2021/04/08 12:12:16;;;;;;;8.23;3.03;;;18.30;83.00;;;;;;5009243;28;20105;-64
2021/04/08 12:15:04;;;;;;;6.00;2.80;;;18.70;82.30;;;;;;5009451;28;20504;-63
2021/04/08 12:17:32;;;;;;;10.85;3.08;;;19.40;81.20;;;;;;5009715;28;20026;-63
2021/04/08 12:20:20;;;;;;;4.80;2.97;;;19.50;80.30;;;;;;5009942;28;20030;-64
2021/04/08 12:22:46;;;;;;;8.90;3.30;;;19.00;82.40;;;;;;5009598;28;20030;-64
2021/04/08 12:25:14;;;;;;;11.63;3.70;;;19.10;80.20;;;;;;5009981;28;20034;-63
2021/04/08 12:27:40;;;;;;;7.57;4.03;;;19.00;80.20;;;;;;5009774;28;20030;-65
2021/04/08 12:30:08;;;;;;;8.68;3.70;;;19.30;80.60;;;;;;5008726;28;20088;-65
2021/04/08 12:32:34;;;;;;;9.70;4.05;;;19.60;79.40;;;;;;5009191;28;20116;-65
2021/04/08 12:34:59;;;;;;;9.15;4.32;;;18.50;80.60;;;;;;5009535;28;20112;-65
2021/04/08 12:37:26;;;;;;;13.52;4.55;;;19.20;79.90;;;;;;5007532;28;20407;-65
2021/04/08 12:39:53;;;;;;;11.73;4.45;;;19.40;79.40;;;;;;5009791;28;20037;-65
2021/04/08 12:42:19;;;;;;;12.32;4.93;;;19.30;77.30;;;;;;5009625;28;20080;-65
2021/04/08 12:44:45;;;;;;;7.50;4.13;;;18.70;77.40;;;;;;5009403;28;20033;-65
2021/04/08 12:47:12;;;;;;;10.48;4.22;;;18.70;78.90;;;;;;5008796;28;20022;-65
2021/04/08 12:49:37;;;;;;;8.75;3.97;;;19.10;78.90;;;;;;5008975;28;20030;-65
2021/04/08 12:52:03;;;;;;;9.45;4.20;;;19.50;80.70;;;;;;5008534;28;20172;-65
2021/04/08 12:54:31;;;;;;;10.70;4.07;;;20.00;76.90;;;;;;5008983;28;20041;-65
2021/04/08 12:56:57;;;;;;;8.40;4.10;;;20.30;75.70;;;;;;5008566;28;20025;-68
2021/04/08 12:59:23;;;;;;;13.88;4.82;;;20.40;77.20;;;;;;5011107;28;20070;-68